Weather reports worldwide

Advertisment
Rodkallen, Sweden (2188): temperature & dewpoint: 09.11.2018 06:00:00 - 15.11.2018 06:00:00 (CET)Rodkallen, Sweden (2188): wind speed & gusts: 09.11.2018 06:00:00 - 15.11.2018 06:00:00 (CET)Rodkallen, Sweden (2188): wind direction: 09.11.2018 06:00:00 - 15.11.2018 06:00:00 (CET)Rodkallen, Sweden (2188): visibility: 09.11.2018 06:00:00 - 15.11.2018 06:00:00 (CET)Rodkallen, Sweden (2188): precipitation: 09.11.2018 06:00:00 - 15.11.2018 06:00:00 (CET)
Date & Time tt [°C] td [°C] ff [km/h] ff [kn] fx [km/h] fx [kn] dd vv [km] rr [mm]
15.11.2018 06:00:00 - - - - - - - - -
15.11.2018 05:00:00 5,6 3,9 43 23 53 29 S 40 0,0
15.11.2018 04:00:00 5,7 4,2 42 23 55 30 S 38 0,0
15.11.2018 03:00:00 5,7 4,2 43 23 56 30 S 38 0,0
15.11.2018 02:00:00 5,2 4,6 45 25 56 30 S 28 0,0
15.11.2018 01:00:00 5,2 4,6 42 23 53 28 S 24 0,0
15.11.2018 00:00:00 4,9 4,2 38 21 53 28 S 20 0,0
14.11.2018 23:00:00 5,7 4,3 30 16 37 20 S 50 0,0
14.11.2018 22:00:00 5,4 4,4 23 12 29 15 S 50 0,0
14.11.2018 21:00:00 5,2 4,0 24 13 28 15 S 50 0,0
14.11.2018 20:00:00 5,1 3,8 24 13 28 15 S 50 0,0
14.11.2018 19:00:00 4,8 3,6 17 9 24 13 S 50 0,0
14.11.2018 18:00:00 4,8 3,7 16 9 21 12 S 50 0,0
14.11.2018 17:00:00 4,9 3,9 13 7 17 9 S 50 0,0
14.11.2018 16:00:00 4,5 3,5 9 5 11 6 SSE 50 0,0
14.11.2018 15:00:00 3,8 2,8 5 3 6 4 SSE 50 0,0
14.11.2018 14:00:00 4,5 2,5 0 0 5 3 N 50 0,0
14.11.2018 13:00:00 4,0 1,7 0 0 7 4 N 50 0,0
14.11.2018 12:00:00 3,2 1,7 5 3 9 5 NE 50 0,0
14.11.2018 11:00:00 3,1 1,6 4 2 10 5 NNW 50 0,0
14.11.2018 10:00:00 2,8 1,5 6 3 13 7 NW 50 0,0
14.11.2018 09:00:00 2,1 1,1 8 5 13 7 NW 50 0,0
14.11.2018 08:00:00 2,2 1,2 9 5 14 8 WNW 50 0,0
14.11.2018 07:00:00 2,3 1,1 9 5 15 8 NW 50 0,0
14.11.2018 06:00:00 2,6 1,4 10 6 18 10 NNW 50 0,0
14.11.2018 05:00:00 3,2 1,9 14 8 18 10 WNW 50 0,0
14.11.2018 04:00:00 3,1 1,9 11 6 18 10 NW 50 0,0
14.11.2018 03:00:00 2,9 1,7 9 5 20 11 NW 50 0,0
14.11.2018 02:00:00 3,1 1,8 13 7 22 12 NW 50 0,0
14.11.2018 01:00:00 3,2 1,7 13 7 22 12 NW 50 0,0
14.11.2018 00:00:00 3,6 2,1 18 10 25 13 WNW 50 0,0
13.11.2018 23:00:00 3,7 2,2 20 11 25 13 WNW 50 0,0
13.11.2018 22:00:00 3,6 2,1 18 10 25 13 NW 50 0,0
13.11.2018 21:00:00 3,9 2,4 16 9 31 17 WNW 50 0,0
13.11.2018 20:00:00 4,3 2,6 20 11 31 17 WNW 50 0,0
13.11.2018 19:00:00 4,5 3,1 26 14 31 17 WNW 50 0,0
13.11.2018 18:00:00 4,5 3,2 24 13 31 17 W 50 0,0
13.11.2018 17:00:00 4,5 3,2 24 13 36 19 W 50 0,0
13.11.2018 16:00:00 4,7 2,9 25 14 36 19 W 50 0,0
13.11.2018 15:00:00 5,4 3,6 22 12 28 15 W 50 0,0
13.11.2018 14:00:00 5,5 3,7 23 12 29 16 W 50 0,0
13.11.2018 13:00:00 6,0 4,0 23 13 29 16 WSW 50 0,0
13.11.2018 12:00:00 5,9 4,5 22 12 29 15 WSW 50 0,0
13.11.2018 11:00:00 6,2 5,3 21 11 30 16 WSW 41 0,0
13.11.2018 10:00:00 6,3 5,7 24 13 31 17 SW 26 0,0
13.11.2018 09:00:00 6,3 5,9 26 14 35 19 S 12 0,0
13.11.2018 08:00:00 6,4 6,0 27 15 35 19 S 12 0,0
13.11.2018 07:00:00 6,4 6,0 24 13 36 19 S 10 0,0
13.11.2018 06:00:00 6,4 6,0 27 15 37 20 S 9 0,0
13.11.2018 05:00:00 6,4 6,0 27 14 37 20 S 7 0,0
13.11.2018 04:00:00 6,4 6,0 29 16 38 20 S 7 0,0
13.11.2018 03:00:00 6,5 6,1 28 15 39 21 S 7 0,0
13.11.2018 02:00:00 6,6 6,0 31 17 47 25 S 6 0,0
13.11.2018 01:00:00 6,6 5,9 34 18 48 26 S 11 0,0
13.11.2018 00:00:00 6,6 6,2 36 19 49 26 S 9 0,0
12.11.2018 23:00:00 6,7 6,3 39 21 59 32 S 12 0,0
12.11.2018 22:00:00 6,4 5,8 39 21 60 33 S 6 0,0
12.11.2018 21:00:00 6,4 5,7 42 23 62 34 S 21 0,0
12.11.2018 20:00:00 6,3 5,4 49 26 62 34 S 15 0,0
12.11.2018 19:00:00 6,0 5,3 44 24 60 33 S 11 0,3
12.11.2018 18:00:00 5,9 5,0 46 25 60 33 SSE 8 0,1
12.11.2018 17:00:00 5,8 4,8 48 26 58 31 SSE 12 0,1
12.11.2018 16:00:00 5,9 4,5 44 24 55 30 SSE 18 0,0
12.11.2018 15:00:00 5,6 4,7 41 22 56 30 SSE 6 0,0
12.11.2018 14:00:00 5,6 4,6 42 23 56 30 SSE 8 0,0
12.11.2018 13:00:00 5,7 4,5 42 23 55 30 S 19 0,0
12.11.2018 12:00:00 5,7 4,7 42 23 54 29 S 12 0,0
12.11.2018 11:00:00 5,5 4,6 40 22 54 29 SSE 3,9 0,0
12.11.2018 10:00:00 5,7 4,5 42 23 54 29 SSE 14 0,3
12.11.2018 09:00:00 5,8 4,1 41 22 54 29 SSE 28 0,0
12.11.2018 08:00:00 5,8 4,3 39 21 54 29 S 23 0,0
12.11.2018 07:00:00 5,9 4,2 40 21 51 27 SSE 30 0,0
12.11.2018 06:00:00 6,0 4,2 39 21 51 27 S 33 0,0
12.11.2018 05:00:00 6,0 4,6 36 20 49 27 S 28 0,0
12.11.2018 04:00:00 5,5 4,9 36 19 48 26 S 5 0,0
12.11.2018 03:00:00 5,5 4,8 36 20 48 26 S 6 0,0
12.11.2018 02:00:00 5,8 4,4 37 20 47 26 S 18 0,0
12.11.2018 01:00:00 5,7 4,5 37 20 47 26 S 13 0,0
12.11.2018 00:00:00 5,4 4,7 36 19 46 25 S 3,5 0,0
11.11.2018 23:00:00 5,6 4,4 36 19 47 25 S 10 0,0
11.11.2018 22:00:00 5,6 4,6 37 20 47 25 SSE 7 0,0
11.11.2018 21:00:00 5,8 4,4 38 20 45 24 S 17 0,0
11.11.2018 20:00:00 5,6 4,7 32 18 43 23 SSE 5 0,0
11.11.2018 19:00:00 5,8 4,4 34 18 43 23 SSE 24 0,0
11.11.2018 18:00:00 5,6 4,2 33 18 45 24 SSE 26 0,0
11.11.2018 17:00:00 5,5 4,3 33 18 46 25 SSE 17 0,0
11.11.2018 16:00:00 5,5 4,1 35 19 46 25 SSE 27 0,0
11.11.2018 15:00:00 5,4 4,2 35 19 45 25 SSE 14 0,0
11.11.2018 14:00:00 5,3 4,4 32 17 43 23 SSE 6 0,0
11.11.2018 13:00:00 5,5 4,1 33 18 42 23 SSE 11 0,0
11.11.2018 12:00:00 5,6 3,4 30 16 45 25 S 50 0,0
11.11.2018 11:00:00 5,6 3,1 31 17 45 25 S 50 0,0
11.11.2018 10:00:00 5,6 3,4 36 19 44 24 S 48 0,0
11.11.2018 09:00:00 5,5 3,8 34 18 43 23 S 40 0,1
11.11.2018 08:00:00 5,5 3,7 34 19 43 23 SSE 43 0,0
11.11.2018 07:00:00 5,3 3,8 31 17 40 22 SSE 37 0,1
11.11.2018 06:00:00 5,1 3,6 31 17 40 22 SSE 39 0,1
11.11.2018 05:00:00 4,8 3,8 30 16 42 23 SSE 6 0,2
11.11.2018 04:00:00 4,8 3,3 32 17 45 24 SSE 13 0,0
11.11.2018 03:00:00 4,8 3,5 32 17 45 24 SSE 19 0,0
11.11.2018 02:00:00 4,8 3,3 36 19 44 24 SE 18 0,1
11.11.2018 01:00:00 4,7 3,4 34 19 43 23 SE 13 0,3
11.11.2018 00:00:00 4,4 3,4 34 18 43 23 SE 4,1 0,0
10.11.2018 23:00:00 4,5 3,2 33 18 44 24 SSE 9 0,0
10.11.2018 22:00:00 4,4 2,7 34 19 44 24 SSE 4,6 0,0
10.11.2018 21:00:00 4,4 2,9 35 19 44 24 SE 4,4 0,2
10.11.2018 20:00:00 4,6 2,8 32 17 44 24 SE 14 0,0
10.11.2018 19:00:00 4,5 2,7 35 19 45 24 SE 7 0,0
10.11.2018 18:00:00 4,7 2,1 36 19 48 26 SE 50 0,0
10.11.2018 17:00:00 4,7 2,6 36 19 48 26 SE 50 0,0
10.11.2018 16:00:00 4,4 2,6 39 21 49 26 SE 50 0,0
10.11.2018 15:00:00 4,3 2,8 38 21 51 27 ESE 13 0,1
10.11.2018 14:00:00 4,1 2,8 39 21 51 27 SE 7 0,3
10.11.2018 13:00:00 4,4 2,7 39 21 49 27 SE 8 1,0
10.11.2018 12:00:00 4,7 3,0 38 20 49 26 SE 8 0,3
10.11.2018 11:00:00 4,8 3,0 40 21 53 29 ESE 9 0,5
10.11.2018 10:00:00 4,9 3,2 35 19 53 29 SE 13 0,6
10.11.2018 09:00:00 5,3 3,1 39 21 50 27 SE 12 0,4
10.11.2018 08:00:00 5,5 4,5 31 17 37 20 SE 8 0,3
10.11.2018 07:00:00 5,3 4,3 27 15 36 20 SE 9 0,0
10.11.2018 06:00:00 5,4 4,0 30 16 39 21 ESE 14 0,0
10.11.2018 05:00:00 5,7 4,0 31 17 39 21 ESE 50 0,0
10.11.2018 04:00:00 5,8 4,4 31 17 37 20 ESE 45 0,0
10.11.2018 03:00:00 5,8 4,8 29 15 34 19 ESE 50 0,1
10.11.2018 02:00:00 5,9 5,0 22 12 29 16 SE 43 0,2
10.11.2018 01:00:00 5,9 5,5 19 10 24 13 SE 8 0,5
10.11.2018 00:00:00 6,0 5,6 16 8 20 11 SE 13 0,7
09.11.2018 23:00:00 5,9 5,6 13 7 19 11 SE 30 0,5
09.11.2018 22:00:00 6,0 5,7 13 7 17 9 SE 17 0,7
09.11.2018 21:00:00 5,6 5,5 10 5 19 11 ENE 9 0,4
09.11.2018 20:00:00 5,3 5,2 14 7 20 11 NE 15 0,4
09.11.2018 19:00:00 4,8 4,5 16 9 19 10 NE 15 0,0
09.11.2018 18:00:00 4,3 4,0 16 8 18 10 NNE 7 0,0
09.11.2018 17:00:00 4,1 3,8 12 6 14 8 N 2,2 0,0
09.11.2018 16:00:00 4,0 3,6 10 6 13 7 N 7 0,0
09.11.2018 15:00:00 4,1 3,5 7 4 12 7 N 20 0,0
09.11.2018 14:00:00 4,1 3,7 8 5 13 7 NNE 28 0,0
09.11.2018 13:00:00 3,9 3,5 11 6 13 7 NNE 24 0,0
09.11.2018 12:00:00 3,8 3,4 8 4 11 6 N 12 0,0
09.11.2018 11:00:00 3,8 3,5 9 5 11 6 N 50 0,0
09.11.2018 10:00:00 3,6 3,3 8 5 11 6 NNW 50 0,1
09.11.2018 09:00:00 3,4 3,1 5 3 7 4 NNW 20 0,0
09.11.2018 08:00:00 3,4 3,1 4 2 6 4 NNW 13 0,1
09.11.2018 07:00:00 3,4 3,1 4 2 6 4 NW 38 0,0
09.11.2018 06:00:00 3,5 3,2 4 2 8 4 WNW 28 0,0

tt = temperature
td = dewpoint
ff = wind speed
fx = gusts
dd = wind direction
vv = visibility
rr = precipitation

Next stations